createdAt,value
2018-04-24T00:00:02.928Z,724.30
2018-04-24T00:01:03.397Z,724.30
2018-04-24T00:02:03.869Z,724.15
2018-04-24T00:03:04.543Z,724.23
2018-04-24T00:04:04.812Z,724.20
2018-04-24T00:05:05.283Z,724.29
2018-04-24T00:06:05.753Z,724.15
2018-04-24T00:07:06.229Z,724.12
2018-04-24T00:08:06.695Z,724.17
2018-04-24T00:09:07.170Z,724.04
2018-04-24T00:10:07.690Z,724.16
2018-04-24T00:11:08.107Z,724.17
2018-04-24T00:12:08.582Z,724.16
2018-04-24T00:13:09.050Z,724.19
2018-04-24T00:14:09.520Z,724.15
2018-04-24T00:15:10.044Z,724.21
2018-04-24T00:16:10.462Z,724.21
2018-04-24T00:17:10.932Z,724.22
2018-04-24T00:18:11.471Z,724.14
2018-04-24T00:19:11.877Z,724.15
2018-04-24T00:20:12.399Z,724.14
2018-04-24T00:21:12.819Z,724.13
2018-04-24T00:22:13.294Z,724.15
2018-04-24T00:23:13.764Z,724.14
2018-04-24T00:24:14.235Z,724.14
2018-04-24T00:25:14.709Z,724.21
2018-04-24T00:26:15.178Z,724.16
2018-04-24T00:27:15.651Z,724.18
2018-04-24T00:28:16.125Z,724.19
2018-04-24T00:29:16.798Z,724.23
2018-04-24T00:30:17.069Z,724.14
2018-04-24T00:31:17.550Z,724.27
2018-04-24T00:32:18.015Z,724.23
2018-04-24T00:33:18.488Z,724.26
2018-04-24T00:34:18.966Z,724.24
2018-04-24T00:35:19.435Z,724.19
2018-04-24T00:36:19.909Z,724.20
2018-04-24T00:37:20.381Z,724.20
2018-04-24T00:38:20.863Z,724.20
2018-04-24T00:40:22.008Z,724.16
2018-04-24T00:41:22.280Z,724.13
2018-04-24T00:42:22.752Z,724.16
2018-04-24T00:43:23.226Z,724.19
2018-04-24T00:44:23.701Z,724.18
2018-04-24T00:45:24.177Z,724.16
2018-04-24T00:46:24.649Z,724.09
2018-04-24T00:47:25.529Z,724.13
2018-04-24T00:48:25.601Z,724.12
2018-04-24T00:49:26.073Z,723.98
2018-04-24T00:50:26.548Z,724.02
2018-04-24T00:51:27.023Z,724.02
2018-04-24T00:52:27.506Z,724.08
2018-04-24T00:53:27.972Z,724.04
2018-04-24T00:54:28.651Z,724.12
2018-04-24T00:55:28.922Z,723.98
2018-04-24T00:56:29.397Z,724.11
2018-04-24T00:57:29.869Z,724.07
2018-04-24T00:58:30.347Z,724.10
2018-04-24T00:59:30.823Z,723.99
2018-04-24T01:01:31.767Z,724.09
2018-04-24T01:02:32.442Z,724.04
2018-04-24T01:03:32.920Z,723.87
2018-04-24T01:04:33.189Z,723.97
2018-04-24T01:05:33.661Z,723.86
2018-04-24T01:06:34.131Z,723.95
2018-04-24T01:09:36.748Z,724.07
2018-04-24T01:10:36.022Z,724.11
2018-04-24T01:11:36.493Z,723.99
2018-04-24T01:12:36.966Z,723.97
2018-04-24T01:13:37.437Z,724.04
2018-04-24T01:14:37.909Z,723.98
2018-04-24T01:15:38.380Z,724.00
2018-04-24T01:16:38.857Z,723.95
2018-04-24T01:17:39.324Z,723.99
2018-04-24T01:18:39.996Z,724.06
2018-04-24T01:19:40.469Z,724.10
2018-04-24T01:20:40.736Z,724.21
2018-04-24T01:21:41.205Z,724.10
2018-04-24T01:22:41.675Z,724.07
2018-04-24T01:23:42.146Z,724.07
2018-04-24T01:24:42.620Z,724.01
2018-04-24T01:25:43.088Z,724.12
2018-04-24T01:26:43.560Z,723.96
2018-04-24T01:27:44.031Z,723.82
2018-04-24T01:28:44.502Z,723.90
2018-04-24T01:30:45.443Z,723.91
2018-04-24T01:31:45.915Z,723.99
2018-04-24T01:32:46.388Z,723.94
2018-04-24T01:33:47.261Z,724.03
2018-04-24T01:34:47.335Z,724.04
2018-04-24T01:35:47.801Z,724.10
2018-04-24T01:36:48.270Z,724.15
2018-04-24T01:37:48.744Z,724.11
2018-04-24T01:38:49.215Z,723.94
2018-04-24T01:39:49.731Z,723.91
2018-04-24T01:40:50.166Z,723.91
2018-04-24T01:41:50.633Z,723.98
2018-04-24T01:42:51.311Z,724.04
2018-04-24T01:43:51.577Z,724.07
2018-04-24T01:44:52.054Z,724.03
2018-04-24T01:45:52.571Z,724.01
2018-04-24T01:46:52.995Z,724.03
2018-04-24T01:47:53.467Z,724.01
2018-04-24T01:48:53.940Z,724.23
2018-04-24T01:49:54.415Z,724.08
2018-04-24T01:50:54.887Z,724.00
2018-04-24T01:51:55.361Z,724.13
2018-04-24T01:52:55.836Z,724.18
2018-04-24T01:53:56.306Z,724.20
2018-04-24T01:54:56.782Z,724.17
2018-04-24T01:57:58.403Z,724.10
2018-04-24T01:59:59.353Z,724.11
2018-04-24T02:00:59.824Z,724.20
2018-04-24T02:02:00.097Z,724.15
2018-04-24T02:03:00.782Z,724.18
2018-04-24T02:04:01.045Z,724.13
2018-04-24T02:06:01.994Z,724.13
2018-04-24T02:07:02.673Z,724.14
2018-04-24T02:08:02.945Z,724.08
2018-04-24T02:09:03.422Z,724.23
2018-04-24T02:10:03.893Z,724.19
2018-04-24T02:11:04.367Z,724.25
2018-04-24T02:13:05.317Z,724.21
2018-04-24T02:14:05.794Z,724.25
2018-04-24T02:15:06.268Z,724.38
2018-04-24T02:16:06.744Z,724.31
2018-04-24T02:17:07.214Z,724.31
2018-04-24T02:18:07.891Z,724.31
2018-04-24T02:19:08.564Z,724.28
2018-04-24T02:20:08.634Z,724.32
2018-04-24T02:21:09.113Z,724.25
2018-04-24T02:22:09.781Z,724.32
2018-04-24T02:24:10.729Z,724.30
2018-04-24T02:25:11.202Z,724.28
2018-04-24T02:26:11.722Z,724.31
2018-04-24T02:27:11.940Z,724.23
2018-04-24T02:28:12.476Z,724.19
2018-04-24T02:29:12.885Z,724.27
2018-04-24T02:30:13.355Z,724.27
2018-04-24T02:31:13.877Z,724.20
2018-04-24T02:32:14.335Z,724.21
2018-04-24T02:33:14.772Z,724.17
2018-04-24T02:34:15.244Z,724.21
2018-04-24T02:35:15.712Z,724.27
2018-04-24T02:37:16.855Z,724.21
2018-04-24T02:38:17.124Z,724.20
2018-04-24T02:40:18.275Z,724.18
2018-04-24T02:41:18.586Z,724.11
2018-04-24T02:42:19.006Z,724.17
2018-04-24T02:44:19.948Z,724.26
2018-04-24T02:45:20.417Z,724.24
2018-04-24T02:46:20.885Z,724.21
2018-04-24T02:47:21.356Z,724.22
2018-04-24T02:48:21.830Z,724.27
2018-04-24T02:49:22.298Z,724.27
2018-04-24T02:50:22.768Z,724.29
2018-04-24T02:51:23.243Z,724.10
2018-04-24T02:53:24.387Z,724.18
2018-04-24T02:54:24.652Z,724.06
2018-04-24T02:56:25.598Z,724.08
2018-04-24T02:57:26.068Z,724.10
2018-04-24T02:59:27.012Z,724.18
2018-04-24T03:00:27.484Z,724.00
2018-04-24T03:01:28.009Z,724.11
2018-04-24T03:02:28.426Z,724.19
2018-04-24T03:03:28.900Z,724.13
2018-04-24T03:04:29.370Z,724.11
2018-04-24T03:05:29.844Z,724.14
2018-04-24T03:06:30.315Z,724.06
2018-04-24T03:07:30.789Z,724.10
2018-04-24T03:08:31.261Z,724.24
2018-04-24T03:10:32.411Z,724.11
2018-04-24T03:11:32.939Z,724.16
2018-04-24T03:12:33.153Z,724.17
2018-04-24T03:13:33.630Z,723.99
2018-04-24T03:14:34.101Z,724.03
2018-04-24T03:15:34.573Z,724.12
2018-04-24T03:17:35.524Z,724.14
2018-04-24T03:18:35.993Z,724.06
2018-04-24T03:20:36.944Z,724.14
2018-04-24T03:21:37.425Z,724.17
2018-04-24T03:22:38.094Z,724.17
2018-04-24T03:23:38.770Z,724.19
2018-04-24T03:24:39.240Z,724.18
2018-04-24T03:25:39.314Z,724.18
2018-04-24T03:26:39.786Z,724.31
2018-04-24T03:27:40.262Z,724.34
2018-04-24T03:28:40.735Z,724.14
2018-04-24T03:29:41.209Z,724.18
2018-04-24T03:30:42.098Z,724.19
2018-04-24T03:31:42.209Z,724.12
2018-04-24T03:32:42.631Z,724.18
2018-04-24T03:33:43.108Z,724.16
2018-04-24T03:34:43.584Z,724.22
2018-04-24T03:35:44.056Z,724.19
2018-04-24T03:36:44.533Z,724.09
2018-04-24T03:37:45.005Z,724.24
2018-04-24T03:38:45.479Z,724.15
2018-04-24T03:39:45.959Z,724.26
2018-04-24T03:40:46.427Z,724.18
2018-04-24T03:41:46.900Z,724.18
2018-04-24T03:42:47.375Z,724.25
2018-04-24T03:44:48.928Z,724.33
2018-04-24T03:45:48.792Z,724.31
2018-04-24T03:47:49.738Z,724.36
2018-04-24T03:48:50.412Z,724.34
2018-04-24T03:49:50.682Z,724.31
2018-04-24T03:50:51.155Z,724.32
2018-04-24T03:51:51.629Z,724.37
2018-04-24T03:52:52.308Z,724.23
2018-04-24T03:53:52.773Z,724.22
2018-04-24T03:54:53.042Z,724.27
2018-04-24T03:55:53.512Z,724.23
2018-04-24T03:56:54.236Z,724.19
2018-04-24T03:57:54.658Z,724.24
2018-04-24T03:58:54.925Z,724.22
2018-04-24T04:00:55.865Z,724.20
2018-04-24T04:02:56.810Z,724.26
2018-04-24T04:03:57.279Z,724.26
2018-04-24T04:04:57.746Z,724.42
2018-04-24T04:05:58.425Z,724.36
2018-04-24T04:06:59.150Z,724.38
2018-04-24T04:07:59.161Z,724.32
2018-04-24T04:09:00.033Z,724.41
2018-04-24T04:10:00.100Z,724.35
2018-04-24T04:11:00.571Z,724.35
2018-04-24T04:12:01.040Z,724.37
2018-04-24T04:13:01.722Z,724.35
2018-04-24T04:14:02.185Z,724.30
2018-04-24T04:15:02.452Z,724.24
2018-04-24T04:16:03.135Z,724.28
2018-04-24T04:17:03.400Z,724.39
2018-04-24T04:18:03.867Z,724.28
2018-04-24T04:19:04.336Z,724.33
2018-04-24T04:20:04.808Z,724.35
2018-04-24T04:21:05.280Z,724.35
2018-04-24T04:22:05.753Z,724.36
2018-04-24T04:23:06.265Z,724.40
2018-04-24T04:24:06.698Z,724.35
2018-04-24T04:25:07.166Z,724.31
2018-04-24T04:26:07.641Z,724.27
2018-04-24T04:27:08.110Z,724.37
2018-04-24T04:28:08.583Z,724.37
2018-04-24T04:30:09.531Z,724.37
2018-04-24T04:31:10.270Z,724.40
2018-04-24T04:33:11.150Z,724.35
2018-04-24T04:34:11.623Z,724.47
2018-04-24T04:35:11.893Z,724.36
2018-04-24T04:36:12.360Z,724.32
2018-04-24T04:37:14.085Z,724.38
2018-04-24T04:38:13.392Z,724.37
2018-04-24T04:40:14.253Z,724.35
2018-04-24T04:42:15.402Z,724.34
2018-04-24T04:44:16.147Z,724.35
2018-04-24T04:45:16.621Z,724.44
2018-04-24T04:46:17.092Z,724.44
2018-04-24T04:47:19.017Z,724.42
2018-04-24T04:48:18.244Z,724.50
2018-04-24T04:50:18.989Z,724.43
2018-04-24T04:51:19.668Z,724.43
2018-04-24T04:52:19.934Z,724.26
2018-04-24T04:53:20.409Z,724.31
2018-04-24T04:54:20.883Z,724.30
2018-04-24T04:55:21.358Z,724.38
2018-04-24T04:56:21.865Z,724.27
2018-04-24T04:57:22.307Z,724.34
2018-04-24T04:58:22.985Z,724.34
2018-04-24T04:59:23.455Z,724.32
2018-04-24T05:00:23.733Z,724.38
2018-04-24T05:01:24.205Z,724.41
2018-04-24T05:02:24.678Z,724.39
2018-04-24T05:04:25.828Z,724.45
2018-04-24T05:06:26.579Z,724.44
2018-04-24T05:07:27.051Z,724.44
2018-04-24T05:08:27.523Z,724.54
2018-04-24T05:09:28.070Z,724.46
2018-04-24T05:10:28.673Z,724.55
2018-04-24T05:11:28.947Z,724.53
2018-04-24T05:12:29.426Z,724.52
2018-04-24T05:14:30.369Z,724.48
2018-04-24T05:15:30.846Z,724.50
2018-04-24T05:16:31.320Z,724.53
2018-04-24T05:17:31.789Z,724.52
2018-04-24T05:18:32.671Z,724.47
2018-04-24T05:19:32.939Z,724.42
2018-04-24T05:20:33.414Z,724.42
2018-04-24T05:21:33.691Z,724.39
2018-04-24T05:22:34.159Z,724.48
2018-04-24T05:23:34.908Z,724.51
2018-04-24T05:24:35.101Z,724.57
2018-04-24T05:25:35.976Z,724.37
2018-04-24T05:26:36.133Z,724.35
2018-04-24T05:27:36.523Z,724.42
2018-04-24T05:28:36.987Z,724.40
2018-04-24T05:29:37.459Z,724.50
2018-04-24T05:30:37.934Z,724.51
2018-04-24T05:32:38.875Z,724.42
2018-04-24T05:33:39.344Z,724.52
2018-04-24T05:34:40.019Z,724.49
2018-04-24T05:35:40.307Z,724.54
2018-04-24T05:36:41.033Z,724.51
2018-04-24T05:37:41.231Z,724.58
2018-04-24T05:38:41.906Z,724.66
2018-04-24T05:39:42.172Z,724.55
2018-04-24T05:42:43.641Z,724.53
2018-04-24T05:44:44.729Z,724.56
2018-04-24T05:45:46.201Z,724.57
2018-04-24T05:46:45.472Z,724.59
2018-04-24T05:49:47.097Z,724.63
2018-04-24T05:51:48.036Z,724.60
2018-04-24T05:54:49.654Z,724.62
2018-04-24T05:55:49.723Z,724.60
2018-04-24T05:56:50.269Z,724.66
2018-04-24T05:57:50.721Z,724.75
2018-04-24T05:58:51.149Z,724.72
2018-04-24T06:00:52.093Z,724.68
2018-04-24T06:01:52.569Z,724.69
2018-04-24T06:02:53.038Z,724.67
2018-04-24T06:03:53.512Z,724.70
2018-04-24T06:05:54.661Z,724.64
2018-04-24T06:06:54.933Z,724.63
2018-04-24T06:07:55.415Z,724.67
2018-04-24T06:08:56.084Z,724.64
2018-04-24T06:10:56.831Z,724.65
2018-04-24T06:11:57.508Z,724.64
2018-04-24T06:13:58.257Z,724.71
2018-04-24T06:14:59.017Z,724.64
2018-04-24T06:15:59.422Z,724.70
2018-04-24T06:18:00.159Z,724.72
2018-04-24T06:19:00.842Z,724.72
2018-04-24T06:20:01.107Z,724.75
2018-04-24T06:21:01.586Z,724.71
2018-04-24T06:22:02.062Z,724.69
2018-04-24T06:23:02.539Z,724.71
2018-04-24T06:24:03.008Z,724.75
2018-04-24T06:25:03.485Z,724.77
2018-04-24T06:26:03.965Z,724.77
2018-04-24T06:28:04.958Z,724.78
2018-04-24T06:29:05.388Z,724.69
2018-04-24T06:30:05.864Z,724.69
2018-04-24T06:31:06.410Z,724.76
2018-04-24T06:32:07.008Z,724.74
2018-04-24T06:33:07.482Z,724.75
2018-04-24T06:34:07.755Z,724.73
2018-04-24T06:35:08.429Z,724.77
2018-04-24T06:36:08.901Z,724.78
2018-04-24T06:37:09.178Z,724.78
2018-04-24T06:38:09.695Z,724.82
2018-04-24T06:39:10.120Z,724.82
2018-04-24T06:40:10.589Z,724.74
2018-04-24T06:41:11.063Z,724.77
2018-04-24T06:42:11.582Z,724.80
2018-04-24T06:43:12.014Z,724.75
2018-04-24T06:44:12.480Z,724.75
2018-04-24T06:45:12.955Z,724.76
2018-04-24T06:46:13.424Z,724.72
2018-04-24T06:47:13.897Z,724.79
2018-04-24T06:48:14.420Z,724.75
2018-04-24T06:49:14.838Z,724.77
2018-04-24T06:50:15.314Z,724.66
2018-04-24T06:51:15.783Z,724.72
2018-04-24T06:52:16.257Z,724.74
2018-04-24T06:53:16.725Z,724.70
2018-04-24T06:54:17.199Z,724.72
2018-04-24T06:55:18.076Z,724.76
2018-04-24T06:56:18.142Z,724.73
2018-04-24T06:57:18.615Z,724.68
2018-04-24T06:58:19.137Z,724.70
2018-04-24T06:59:20.753Z,724.75
2018-04-24T07:00:20.030Z,724.76
2018-04-24T07:02:20.984Z,724.74
2018-04-24T07:03:21.654Z,724.75
2018-04-24T07:04:23.121Z,724.72
2018-04-24T07:05:22.398Z,724.67
2018-04-24T07:06:22.935Z,724.76
2018-04-24T07:07:23.343Z,724.72
2018-04-24T07:09:24.290Z,724.74
2018-04-24T07:10:24.780Z,724.74
2018-04-24T07:11:25.643Z,724.70
2018-04-24T07:12:25.716Z,724.79
2018-04-24T07:13:26.190Z,724.71
2018-04-24T07:14:26.864Z,724.76
2018-04-24T07:15:27.344Z,724.76
2018-04-24T07:16:27.612Z,724.75
2018-04-24T07:17:28.292Z,724.79
2018-04-24T07:18:28.568Z,724.75
2018-04-24T07:19:29.450Z,724.85
2018-04-24T07:20:29.515Z,724.86
2018-04-24T07:21:29.992Z,724.87
2018-04-24T07:22:30.666Z,724.82
2018-04-24T07:23:30.995Z,724.85
2018-04-24T07:24:31.423Z,724.90
2018-04-24T07:27:32.846Z,724.87
2018-04-24T07:29:33.799Z,724.92
2018-04-24T07:30:34.280Z,724.83
2018-04-24T07:31:34.746Z,724.90
2018-04-24T07:32:35.224Z,724.87
2018-04-24T07:33:35.851Z,724.85
2018-04-24T07:34:36.173Z,724.90
2018-04-24T07:35:36.650Z,724.98
2018-04-24T07:36:37.126Z,724.88
2018-04-24T07:37:37.802Z,724.89
2018-04-24T07:39:38.550Z,724.90
2018-04-24T07:40:39.226Z,724.90
2018-04-24T07:41:39.499Z,724.99
2018-04-24T07:42:39.975Z,725.00
2018-04-24T07:43:40.499Z,725.02
2018-04-24T07:44:40.925Z,724.97
2018-04-24T07:45:41.394Z,724.99
2018-04-24T07:46:41.880Z,724.98
2018-04-24T07:47:42.343Z,725.03
2018-04-24T07:48:42.814Z,725.03
2018-04-24T07:50:43.764Z,725.05
2018-04-24T07:51:44.235Z,725.05
2018-04-24T07:52:44.910Z,725.05
2018-04-24T07:55:46.127Z,724.99
2018-04-24T07:56:46.599Z,724.99
2018-04-24T07:57:47.067Z,725.00
2018-04-24T07:58:47.540Z,724.96
2018-04-24T07:59:48.216Z,725.02
2018-04-24T08:00:48.687Z,725.02
2018-04-24T08:02:49.428Z,725.03
2018-04-24T08:03:49.955Z,724.98
2018-04-24T08:04:50.378Z,725.03
2018-04-24T08:05:50.844Z,725.05
2018-04-24T08:06:52.265Z,725.01
2018-04-24T08:07:52.196Z,724.93
2018-04-24T08:09:52.733Z,724.91
2018-04-24T08:10:53.412Z,724.92
2018-04-24T08:11:53.681Z,724.96
2018-04-24T08:12:54.153Z,724.95
2018-04-24T08:13:54.630Z,724.98
2018-04-24T08:14:55.109Z,725.05
2018-04-24T08:15:55.577Z,725.08
2018-04-24T08:16:56.251Z,725.01
2018-04-24T08:17:56.542Z,724.92
2018-04-24T08:18:56.998Z,725.03
2018-04-24T08:19:57.469Z,725.01
2018-04-24T08:21:58.415Z,725.06
2018-04-24T08:22:58.951Z,725.13
2018-04-24T08:23:59.422Z,725.15
2018-04-24T08:24:59.840Z,725.12
2018-04-24T08:27:00.794Z,725.11
2018-04-24T08:28:01.274Z,725.12
2018-04-24T08:29:01.742Z,725.07
2018-04-24T08:30:02.220Z,725.15
2018-04-24T08:31:02.694Z,725.11
2018-04-24T08:32:03.374Z,725.07
2018-04-24T08:33:03.653Z,725.03
2018-04-24T08:36:05.078Z,725.09
2018-04-24T08:37:05.557Z,725.11
2018-04-24T08:39:06.503Z,725.19
2018-04-24T08:40:07.077Z,725.12
2018-04-24T08:41:07.657Z,725.01
2018-04-24T08:42:07.935Z,724.98
2018-04-24T08:44:08.887Z,725.07
2018-04-24T08:45:09.559Z,725.04
2018-04-24T08:46:09.833Z,725.02
2018-04-24T08:47:11.391Z,725.12
2018-04-24T08:48:10.789Z,725.00
2018-04-24T08:49:11.575Z,724.99
2018-04-24T08:50:11.939Z,725.01
2018-04-24T08:51:12.215Z,725.04
2018-04-24T08:52:12.687Z,725.11
2018-04-24T08:54:13.835Z,725.09
2018-04-24T08:55:14.107Z,725.12
2018-04-24T08:56:14.582Z,725.16
2018-04-24T08:57:15.054Z,725.07
2018-04-24T08:58:15.732Z,725.17
2018-04-24T08:59:16.456Z,725.13
2018-04-24T09:00:16.476Z,725.11
2018-04-24T09:01:16.954Z,725.11
2018-04-24T09:03:18.098Z,725.08
2018-04-24T09:04:18.421Z,725.16
2018-04-24T09:05:18.842Z,725.08
2018-04-24T09:07:19.789Z,725.12
2018-04-24T09:08:20.258Z,725.07
2018-04-24T09:09:20.732Z,725.15
2018-04-24T09:10:21.203Z,725.08
2018-04-24T09:11:21.681Z,725.06
2018-04-24T09:12:22.148Z,725.10
2018-04-24T09:13:22.620Z,725.13
2018-04-24T09:15:23.564Z,725.11
2018-04-24T09:16:24.042Z,725.06
2018-04-24T09:17:24.507Z,725.10
2018-04-24T09:18:25.187Z,725.09
2018-04-24T09:19:25.669Z,725.03
2018-04-24T09:20:25.931Z,725.08
2018-04-24T09:21:26.434Z,725.06
2018-04-24T09:22:27.075Z,725.11
2018-04-24T09:23:27.549Z,725.15
2018-04-24T09:24:27.872Z,725.06
2018-04-24T09:25:28.290Z,725.06
2018-04-24T09:26:28.767Z,725.13
2018-04-24T09:27:29.442Z,725.10
2018-04-24T09:29:30.186Z,725.09
2018-04-24T09:30:30.666Z,725.13
2018-04-24T09:32:31.813Z,725.17
2018-04-24T09:33:32.107Z,725.13
2018-04-24T09:34:32.764Z,725.20
2018-04-24T09:35:33.037Z,725.15
2018-04-24T09:36:33.712Z,725.20
2018-04-24T09:37:33.985Z,725.21
2018-04-24T09:38:34.465Z,725.19
2018-04-24T09:39:35.141Z,725.22
2018-04-24T09:40:35.424Z,725.22
2018-04-24T09:41:35.916Z,725.21
2018-04-24T09:42:36.777Z,725.22
2018-04-24T09:43:36.846Z,725.24
2018-04-24T09:45:37.801Z,725.25
2018-04-24T09:46:38.283Z,725.27
2018-04-24T09:47:38.751Z,725.24
2018-04-24T09:48:39.230Z,725.27
2018-04-24T09:49:39.705Z,725.23
2018-04-24T09:50:40.182Z,725.26
2018-04-24T09:52:41.135Z,725.26
2018-04-24T09:53:43.029Z,725.27
2018-04-24T09:55:42.764Z,725.32
2018-04-24T09:56:43.119Z,725.31
2018-04-24T09:57:43.719Z,725.28
2018-04-24T09:58:43.994Z,725.26
2018-04-24T09:59:44.465Z,725.25
2018-04-24T10:00:44.942Z,725.29
2018-04-24T10:04:47.245Z,725.28
2018-04-24T10:05:47.322Z,725.29
2018-04-24T10:06:48.253Z,725.33
2018-04-24T10:07:48.357Z,725.30
2018-04-24T10:08:48.742Z,725.36
2018-04-24T10:09:49.465Z,725.30
2018-04-24T10:11:51.363Z,725.27
2018-04-24T10:12:50.635Z,725.27
2018-04-24T10:13:51.315Z,725.26
2018-04-24T10:14:51.784Z,725.27
2018-04-24T10:15:52.064Z,725.29
2018-04-24T10:16:52.530Z,725.28
2018-04-24T10:17:53.008Z,725.22
2018-04-24T10:19:54.409Z,725.31
2018-04-24T10:20:54.429Z,725.22
2018-04-24T10:21:54.896Z,725.26
2018-04-24T10:22:55.573Z,725.30
2018-04-24T10:24:56.318Z,725.21
2018-04-24T10:25:58.184Z,725.26
2018-04-24T10:26:57.259Z,725.26
2018-04-24T10:27:58.010Z,725.27
2018-04-24T10:28:58.407Z,725.35
2018-04-24T10:29:58.682Z,725.28
2018-04-24T10:30:59.356Z,725.26
2018-04-24T10:31:59.621Z,725.23
2018-04-24T10:34:00.574Z,725.29
2018-04-24T10:35:01.295Z,725.27
2018-04-24T10:36:01.513Z,725.23
2018-04-24T10:37:02.190Z,725.31
2018-04-24T10:39:03.180Z,725.36
2018-04-24T10:41:03.879Z,725.38
2018-04-24T10:42:04.830Z,725.35
2018-04-24T10:43:04.832Z,725.38
2018-04-24T10:46:06.447Z,725.37
2018-04-24T10:47:06.728Z,725.43
2018-04-24T10:48:07.225Z,725.45
2018-04-24T10:49:07.873Z,725.42
2018-04-24T10:52:09.302Z,725.33
2018-04-24T10:53:09.778Z,725.35
2018-04-24T10:54:10.256Z,725.36
2018-04-24T10:55:10.533Z,725.34
2018-04-24T10:56:11.207Z,725.37
2018-04-24T10:57:11.491Z,725.37
2018-04-24T10:58:11.957Z,725.34
2018-04-24T10:59:12.635Z,725.36
2018-04-24T11:02:14.270Z,725.34
2018-04-24T11:03:14.342Z,725.34
2018-04-24T11:04:14.823Z,725.34
2018-04-24T11:05:15.304Z,725.38
2018-04-24T11:06:15.767Z,725.35
2018-04-24T11:07:16.375Z,725.40
2018-04-24T11:08:16.721Z,725.35
2018-04-24T11:09:17.406Z,725.34
2018-04-24T11:10:17.725Z,725.34
2018-04-24T11:11:18.153Z,725.38
2018-04-24T11:12:18.631Z,725.37
2018-04-24T11:15:20.108Z,725.33
2018-04-24T11:16:20.528Z,725.35
2018-04-24T11:17:21.081Z,725.39
2018-04-24T11:20:22.476Z,725.37
2018-04-24T11:21:22.988Z,725.32
2018-04-24T11:22:23.576Z,725.33
2018-04-24T11:23:23.858Z,725.32
2018-04-24T11:24:24.326Z,725.29
2018-04-24T11:25:25.054Z,725.31
2018-04-24T11:26:25.276Z,725.37
2018-04-24T11:27:25.748Z,725.32
2018-04-24T11:28:26.223Z,725.34
2018-04-24T11:29:26.701Z,725.38
2018-04-24T11:30:27.377Z,725.31
2018-04-24T11:31:27.649Z,725.31
2018-04-24T11:32:28.197Z,725.31
2018-04-24T11:33:28.592Z,725.36
2018-04-24T11:34:29.081Z,725.33
2018-04-24T11:36:30.288Z,725.37
2018-04-24T11:37:30.991Z,725.36
2018-04-24T11:39:31.703Z,725.30
2018-04-24T11:40:31.903Z,725.35
2018-04-24T11:42:32.846Z,725.29
2018-04-24T11:43:33.328Z,725.33
2018-04-24T11:44:34.098Z,725.29
2018-04-24T11:45:34.265Z,725.34
2018-04-24T11:46:36.180Z,725.33
2018-04-24T11:47:35.411Z,725.29
2018-04-24T11:48:35.945Z,725.40
2018-04-24T11:49:36.193Z,725.37
2018-04-24T11:50:36.879Z,725.35
2018-04-24T11:51:37.162Z,725.37
2018-04-24T11:52:37.571Z,725.35
2018-04-24T11:53:38.044Z,725.35
2018-04-24T11:54:38.518Z,725.46
2018-04-24T11:56:39.464Z,725.38
2018-04-24T11:57:40.343Z,725.45
2018-04-24T11:58:40.816Z,725.46
2018-04-24T12:00:41.662Z,725.49
2018-04-24T12:01:41.833Z,725.48
2018-04-24T12:02:43.581Z,725.49
2018-04-24T12:03:42.784Z,725.53
2018-04-24T12:04:43.464Z,725.57
2018-04-24T12:05:44.215Z,725.52
2018-04-24T12:06:44.208Z,725.49
2018-04-24T12:07:44.683Z,725.51
2018-04-24T12:08:45.364Z,725.42
2018-04-24T12:09:45.633Z,725.42
2018-04-24T12:10:46.109Z,725.45
2018-04-24T12:11:46.788Z,725.54
2018-04-24T12:12:47.487Z,725.52
2018-04-24T12:13:47.548Z,725.54
2018-04-24T12:14:48.016Z,725.52
2018-04-24T12:17:49.444Z,725.52
2018-04-24T12:18:50.125Z,725.51
2018-04-24T12:19:50.401Z,725.52
2018-04-24T12:20:50.881Z,725.53
2018-04-24T12:22:51.827Z,725.50
2018-04-24T12:23:52.309Z,725.54
2018-04-24T12:24:52.782Z,725.49
2018-04-24T12:25:53.457Z,725.53
2018-04-24T12:26:54.136Z,725.46
2018-04-24T12:27:54.210Z,725.51
2018-04-24T12:29:55.163Z,725.44
2018-04-24T12:30:55.633Z,725.52
2018-04-24T12:31:56.113Z,725.46
2018-04-24T12:32:56.789Z,725.40
2018-04-24T12:33:57.134Z,725.37
2018-04-24T12:34:57.940Z,725.40
2018-04-24T12:35:58.264Z,725.35
2018-04-24T12:37:58.964Z,725.45
2018-04-24T12:38:59.643Z,725.44
2018-04-24T12:41:00.435Z,725.48
2018-04-24T12:42:02.059Z,725.46
2018-04-24T12:43:01.336Z,725.45
2018-04-24T12:44:02.014Z,725.45
2018-04-24T12:45:02.282Z,725.41
2018-04-24T12:46:02.753Z,725.40
2018-04-24T12:49:04.657Z,725.41
2018-04-24T12:50:04.858Z,725.37
2018-04-24T12:51:05.525Z,725.37
2018-04-24T12:52:07.611Z,725.43
2018-04-24T12:54:06.748Z,725.37
2018-04-24T12:56:07.485Z,725.44
2018-04-24T12:57:07.958Z,725.47
2018-04-24T12:58:08.635Z,725.42
2018-04-24T12:59:09.061Z,725.38
2018-04-24T13:03:10.798Z,725.38
2018-04-24T13:04:11.671Z,725.40
2018-04-24T13:05:11.737Z,725.44
2018-04-24T13:06:12.613Z,725.41
2018-04-24T13:07:12.964Z,725.43
2018-04-24T13:08:13.198Z,725.43
2018-04-24T13:10:14.099Z,725.40
2018-04-24T13:12:15.457Z,725.39
2018-04-24T13:13:15.724Z,725.46
2018-04-24T13:15:16.465Z,725.37
2018-04-24T13:16:17.194Z,725.38
2018-04-24T13:17:17.893Z,725.43
2018-04-24T13:19:18.787Z,725.44
2018-04-24T13:20:19.250Z,725.38
2018-04-24T13:21:19.511Z,725.36
2018-04-24T13:22:19.802Z,725.33
2018-04-24T13:23:20.865Z,725.37
2018-04-24T13:24:20.940Z,725.31
2018-04-24T13:26:22.544Z,725.39
2018-04-24T13:27:22.162Z,725.36
2018-04-24T13:29:23.396Z,725.33
2018-04-24T13:30:23.790Z,725.37
2018-04-24T13:33:25.219Z,725.42
2018-04-24T13:34:25.698Z,725.33
2018-04-24T13:35:26.183Z,725.35
2018-04-24T13:37:27.003Z,725.30
2018-04-24T13:39:27.878Z,725.39
2018-04-24T13:41:28.830Z,725.34
2018-04-24T13:42:29.306Z,725.37
2018-04-24T13:43:29.986Z,725.37
2018-04-24T13:44:30.259Z,725.34
2018-04-24T13:45:31.141Z,725.29
2018-04-24T13:46:31.206Z,725.32
2018-04-24T13:47:31.687Z,725.28
2018-04-24T13:48:32.157Z,725.25
2018-04-24T13:49:32.721Z,725.25
2018-04-24T13:50:34.309Z,725.24
2018-04-24T13:51:33.787Z,725.11
2018-04-24T13:52:34.060Z,725.11
2018-04-24T13:53:34.532Z,725.19
2018-04-24T13:54:35.009Z,725.25
2018-04-24T13:55:35.483Z,725.19
2018-04-24T13:56:36.362Z,725.17
2018-04-24T13:57:36.634Z,725.19
2018-04-24T13:58:36.911Z,725.29
2018-04-24T13:59:37.381Z,725.20
2018-04-24T14:00:37.853Z,725.28
2018-04-24T14:01:38.327Z,725.23
2018-04-24T14:02:38.804Z,725.29
2018-04-24T14:03:39.882Z,725.27
2018-04-24T14:04:39.759Z,725.32
2018-04-24T14:06:40.697Z,725.28
2018-04-24T14:07:41.373Z,725.24
2018-04-24T14:08:41.640Z,725.30
2018-04-24T14:09:42.116Z,725.24
2018-04-24T14:10:43.068Z,725.23
2018-04-24T14:11:43.364Z,725.25
2018-04-24T14:12:44.141Z,725.32
2018-04-24T14:13:44.004Z,725.17
2018-04-24T14:14:44.885Z,725.15
2018-04-24T14:15:44.950Z,725.12
2018-04-24T14:17:45.894Z,725.27
2018-04-24T14:18:46.366Z,725.14
2018-04-24T14:19:46.836Z,725.16
2018-04-24T14:20:47.513Z,725.20
2018-04-24T14:21:48.065Z,725.20
2018-04-24T14:22:48.259Z,725.24
2018-04-24T14:23:48.738Z,725.34
2018-04-24T14:24:49.201Z,725.22
2018-04-24T14:25:49.672Z,725.23
2018-04-24T14:26:50.498Z,725.25
2018-04-24T14:28:51.365Z,725.21
2018-04-24T14:29:51.561Z,725.28
2018-04-24T14:31:52.916Z,725.23
2018-04-24T14:32:52.986Z,725.26
2018-04-24T14:33:53.455Z,725.22
2018-04-24T14:34:53.933Z,725.20
2018-04-24T14:35:54.680Z,725.28
2018-04-24T14:36:55.426Z,725.19
2018-04-24T14:37:55.754Z,725.21
2018-04-24T14:38:55.827Z,725.15
2018-04-24T14:41:57.306Z,725.21
2018-04-24T14:42:57.729Z,725.11